Time;durP1;ratioP1;P1;durP2;ratioP2;P2;SDS_P1;SDS_P2;PMS_P1;PMS_P2;Temp;Humidity;BMP_temperature;BMP_pressure;BME280_temperature;BME280_humidity;BME280_pressure;Samples;Min_cycle;Max_cycle;Signal;HPM_P1;HPM_P2
2023/02/24 00:01:26;;;;;;;;;53.33;42.00;;;;;11.27;100.00;100714.81;5024093;28;45555;-83
2023/02/24 00:03:58;;;;;;;;;41.67;35.33;;;;;11.20;100.00;100705.88;5007219;28;45406;-83
2023/02/24 00:06:37;;;;;;;;;42.67;36.67;;;;;11.19;100.00;100705.00;5006645;28;45261;-83
2023/02/24 00:09:10;;;;;;;;;42.33;37.00;;;;;11.27;100.00;100704.16;5004596;28;45376;-83
2023/02/24 00:11:40;;;;;;;;;39.00;36.67;;;;;11.20;100.00;100695.22;5003379;28;45327;-83
2023/02/24 00:14:08;;;;;;;;;50.00;38.00;;;;;11.14;100.00;100700.50;5021212;28;45445;-84
2023/02/24 00:16:34;;;;;;;;;63.00;41.67;;;;;11.06;100.00;100697.75;5018550;28;47822;-84
2023/02/24 00:19:00;;;;;;;;;57.67;42.00;;;;;11.10;100.00;100691.56;5022691;28;45441;-84
2023/02/24 00:21:27;;;;;;;;;54.67;42.00;;;;;11.07;100.00;100688.91;5004796;28;45309;-83
2023/02/24 00:23:53;;;;;;;;;55.33;42.67;;;;;11.05;100.00;100693.31;5023297;28;45408;-83
2023/02/24 00:26:19;;;;;;;;;47.00;37.67;;;;;11.12;100.00;100691.59;5023773;28;46793;-82
2023/02/24 00:28:46;;;;;;;;;49.33;41.00;;;;;11.14;100.00;100684.53;5006629;28;45511;-82
2023/02/24 00:31:16;;;;;;;;;47.67;38.00;;;;;11.17;100.00;100684.56;5024946;28;45467;-83
2023/02/24 00:33:44;;;;;;;;;48.67;39.00;;;;;11.16;100.00;100683.66;5024938;28;45335;-83
2023/02/24 00:36:22;;;;;;;;;52.00;37.00;;;;;11.19;100.00;100683.69;5027235;28;46874;-83
2023/02/24 00:38:49;;;;;;;;;58.33;44.00;;;;;11.13;100.00;100682.72;5010098;28;45503;-83
2023/02/24 00:41:51;;;;;;;;;58.67;44.67;;;;;11.21;100.00;100675.75;5024448;28;45317;-83
2023/02/24 00:44:17;;;;;;;;;50.33;39.33;;;;;11.12;100.00;100680.94;5006485;28;45428;-83
2023/02/24 00:46:45;;;;;;;;;50.33;41.33;;;;;11.12;100.00;100680.94;5003485;28;46736;-82
2023/02/24 00:49:18;;;;;;;;;51.00;39.67;;;;;10.99;100.00;100672.84;5005206;28;45415;-84
2023/02/24 00:51:47;;;;;;;;;53.33;41.00;;;;;11.00;100.00;100677.25;5003851;28;45460;-83
2023/02/24 00:54:14;;;;;;;;;57.00;42.33;;;;;11.04;100.00;100683.53;5007225;28;44828;-83
2023/02/24 00:56:42;;;;;;;;;47.00;41.33;;;;;10.93;100.00;100653.25;5002671;28;45451;-83
2023/02/24 00:59:09;;;;;;;;;55.00;42.67;;;;;10.92;100.00;100648.78;5002521;28;45412;-83
2023/02/24 01:01:35;;;;;;;;;54.33;40.33;;;;;10.89;100.00;100656.75;5002885;28;45472;-82
2023/02/24 01:04:09;;;;;;;;;46.00;39.00;;;;;10.81;100.00;100648.69;5004335;28;45351;-85
2023/02/24 01:06:39;;;;;;;;;61.67;45.67;;;;;10.84;100.00;100632.75;5002540;28;47189;-85
2023/02/24 01:09:08;;;;;;;;;57.00;42.00;;;;;10.97;100.00;100663.94;5004408;28;45280;-84
2023/02/24 01:14:23;;;;;;;;;57.33;43.33;;;;;10.95;100.00;100663.03;5007682;28;45389;-83
2023/02/24 01:16:53;;;;;;;;;57.00;45.67;;;;;11.06;100.00;100665.81;5010024;28;46556;-84
2023/02/24 01:19:20;;;;;;;;;54.00;40.67;;;;;10.97;100.00;100658.63;5002617;28;45450;-84
2023/02/24 01:21:50;;;;;;;;;55.00;38.67;;;;;10.92;100.00;100649.69;5003017;28;45364;-85
2023/02/24 01:24:16;;;;;;;;;56.33;42.00;;;;;10.95;100.00;100651.50;5002810;28;45542;-84
2023/02/24 01:26:43;;;;;;;;;50.33;38.00;;;;;10.93;100.00;100645.28;5005524;28;45644;-83
2023/02/24 01:29:08;;;;;;;;;54.33;42.67;;;;;10.92;100.00;100649.69;5003790;28;44962;-83
2023/02/24 01:31:37;;;;;;;;;49.67;38.67;;;;;10.92;100.00;100644.34;5001928;28;45520;-83
2023/02/24 01:34:09;;;;;;;;;61.33;46.00;;;;;11.01;100.00;100644.47;5005609;28;45358;-83
2023/02/24 01:36:36;;;;;;;;;55.67;44.00;;;;;10.90;100.00;100643.44;5004387;28;45793;-82
2023/02/24 01:39:09;;;;;;;;;54.33;42.00;;;;;10.94;100.00;100641.72;5003824;28;45385;-83
2023/02/24 01:41:45;;;;;;;;;58.00;42.00;;;;;10.91;100.00;100639.94;5005179;28;45826;-83
2023/02/24 01:44:14;;;;;;;;;53.00;44.00;;;;;10.95;100.00;100633.75;5004820;28;45893;-83
2023/02/24 01:46:45;;;;;;;;;57.33;42.33;;;;;10.89;100.00;100630.16;5003556;28;47609;-83
2023/02/24 01:49:32;;;;;;;;;52.00;40.00;;;;;10.92;100.00;100633.72;5005371;28;45567;-83
2023/02/24 01:52:11;;;;;;;;;54.00;42.33;;;;;10.86;100.00;100623.00;5020825;28;44829;-83
2023/02/24 01:54:41;;;;;;;;;58.33;45.33;;;;;10.86;100.00;100630.09;5025509;28;44960;-84
2023/02/24 01:57:15;;;;;;;;;55.67;41.00;;;;;10.85;100.00;100626.56;5023398;28;44994;-84
2023/02/24 01:59:45;;;;;;;;;49.33;42.67;;;;;10.83;100.00;100620.34;5004437;28;45253;-83
2023/02/24 02:02:11;;;;;;;;;54.00;41.00;;;;;10.79;100.00;100615.84;5024155;28;45536;-84
2023/02/24 02:05:00;;;;;;;;;61.67;44.67;;;;;10.83;100.00;100607.03;5025930;28;44850;-84
2023/02/24 02:07:28;;;;;;;;;54.33;41.00;;;;;10.79;100.00;100618.50;5037254;28;46852;-83
2023/02/24 02:10:02;;;;;;;;;56.00;44.33;;;;;10.79;100.00;100610.53;5020602;28;45612;-83
2023/02/24 02:12:31;;;;;;;;;56.33;44.00;;;;;10.83;100.00;100615.00;5003894;28;45403;-83
2023/02/24 02:14:58;;;;;;;;;57.00;43.33;;;;;10.76;100.00;100600.72;5019620;28;45462;-83
2023/02/24 02:17:29;;;;;;;;;53.00;45.00;;;;;10.93;100.00;100600.94;5022374;28;46071;-83
2023/02/24 02:20:18;;;;;;;;;57.00;41.00;;;;;10.85;100.00;100610.59;5024641;28;45125;-84
2023/02/24 02:22:49;;;;;;;;;59.67;45.67;;;;;10.88;100.00;100602.63;5025461;28;45284;-84
2023/02/24 02:25:33;;;;;;;;;52.00;40.67;;;;;10.88;100.00;100602.63;5023747;28;45496;-84
2023/02/24 02:28:02;;;;;;;;;56.00;43.00;;;;;10.78;100.00;100591.00;5024181;28;45458;-84
2023/02/24 02:30:27;;;;;;;;;56.33;44.00;;;;;10.71;100.00;100583.84;5022322;28;45837;-83
2023/02/24 02:33:20;;;;;;;;;53.00;39.00;;;;;10.77;100.00;100588.34;5022323;28;45541;-83
2023/02/24 02:36:00;;;;;;;;;54.00;42.33;;;;;10.72;100.00;100588.28;5021051;28;45694;-83
2023/02/24 02:38:36;;;;;;;;;63.00;47.67;;;;;10.61;100.00;100579.31;5020948;28;45249;-82
2023/02/24 02:41:29;;;;;;;;;62.67;42.67;;;;;10.65;100.00;100582.88;5024998;28;45378;-83
2023/02/24 02:44:08;;;;;;;;;58.33;42.67;;;;;10.52;100.00;100566.81;5021388;28;45526;-83
2023/02/24 02:46:59;;;;;;;;;53.67;41.00;;;;;10.53;100.00;100579.19;5018794;28;45338;-85
2023/02/24 02:49:41;;;;;;;;;60.67;48.33;;;;;10.50;100.00;100565.88;5002306;28;46858;-83
2023/02/24 02:52:20;;;;;;;;;50.67;39.67;;;;;10.49;100.00;100571.19;5020564;28;45480;-83
2023/02/24 02:54:52;;;;;;;;;53.00;42.33;;;;;10.48;100.00;100572.94;5036324;28;45363;-84
2023/02/24 02:57:28;;;;;;;;;55.00;42.33;;;;;10.49;100.00;100556.13;5036695;28;45435;-82
2023/02/24 03:03:18;;;;;;;;;55.00;43.67;;;;;10.44;100.00;100563.13;5022998;28;45585;-83
2023/02/24 03:05:51;;;;;;;;;56.33;43.67;;;;;10.46;100.00;100565.81;5024985;28;45522;-83
2023/02/24 03:08:24;;;;;;;;;53.00;43.67;;;;;10.49;100.00;100560.56;5009064;28;45404;-83
2023/02/24 03:10:52;;;;;;;;;62.67;48.00;;;;;10.46;100.00;100548.09;5006964;28;46861;-83
2023/02/24 03:13:24;;;;;;;;;56.67;45.67;;;;;10.34;100.00;100534.66;5024495;28;44887;-84
2023/02/24 03:15:52;;;;;;;;;55.00;44.33;;;;;10.51;100.00;100567.66;5025499;28;45481;-84
2023/02/24 03:18:27;;;;;;;;;52.67;40.33;;;;;10.53;100.00;100567.69;5003957;28;45272;-84
2023/02/24 03:21:07;;;;;;;;;57.33;45.33;;;;;10.51;100.00;100574.75;5023118;28;46200;-83
2023/02/24 03:23:52;;;;;;;;;56.67;43.33;;;;;10.44;100.00;100560.47;5006874;28;45378;-83
2023/02/24 03:26:31;;;;;;;;;46.67;37.33;;;;;10.36;100.00;100559.50;5024652;28;44881;-83
2023/02/24 03:29:10;;;;;;;;;46.00;39.33;;;;;10.44;100.00;100564.91;5002991;28;45348;-84
2023/02/24 03:31:45;;;;;;;;;58.67;41.33;;;;;10.49;100.00;100560.56;5020218;28;45345;-84
2023/02/24 03:34:22;;;;;;;;;56.00;44.67;;;;;10.52;100.00;100561.47;5003599;28;44977;-83
2023/02/24 03:36:48;;;;;;;;;48.33;42.33;;;;;10.47;100.00;100568.50;5003842;28;45766;-83
2023/02/24 03:39:14;;;;;;;;;51.33;41.33;;;;;10.37;100.00;100553.31;5022104;28;45517;-85
2023/02/24 03:42:05;;;;;;;;;47.67;38.00;;;;;10.39;100.00;100564.84;5004496;28;46984;-82
2023/02/24 03:44:32;;;;;;;;;54.67;41.67;;;;;10.39;100.00;100567.53;5001021;28;45328;-83
2023/02/24 03:46:59;;;;;;;;;54.00;41.33;;;;;10.41;100.00;100568.44;4997923;28;45386;-85
2023/02/24 03:49:26;;;;;;;;;53.67;42.00;;;;;10.47;100.00;100563.19;5003561;28;45351;-84
2023/02/24 03:52:46;;;;;;;;;54.33;41.33;;;;;10.52;100.00;100553.50;5001931;28;47206;-85
2023/02/24 03:55:32;;;;;;;;;56.33;44.33;;;;;10.47;100.00;100551.66;4924244;28;45311;-83
2023/02/24 03:58:16;;;;;;;;;54.00;42.33;;;;;10.29;100.00;100494.72;4924733;28;45406;-83
2023/02/24 04:01:08;;;;;;;;;56.33;43.00;;;;;10.52;100.00;100540.22;4957961;28;45305;-84
2023/02/24 04:03:53;;;;;;;;;47.67;40.00;;;;;10.44;100.00;100541.84;4941254;28;46797;-83
2023/02/24 04:06:35;;;;;;;;;51.00;40.67;;;;;10.37;100.00;100529.38;4941923;28;45486;-83
2023/02/24 04:09:22;;;;;;;;;51.33;42.67;;;;;10.41;100.00;100523.22;4927425;28;45620;-85
2023/02/24 04:11:55;;;;;;;;;59.00;45.67;;;;;10.44;100.00;100520.59;4946776;28;45500;-83
2023/02/24 04:14:44;;;;;;;;;51.00;40.00;;;;;10.38;100.00;100504.56;4929721;28;47237;-82
2023/02/24 04:17:13;;;;;;;;;52.33;41.33;;;;;10.33;100.00;100523.13;4945148;28;45353;-83
2023/02/24 04:19:41;;;;;;;;;38.67;34.00;;;;;10.29;100.00;100521.28;4943891;28;44978;-84
2023/02/24 04:22:11;;;;;;;;;58.33;43.00;;;;;10.28;100.00;100518.59;4944730;28;45502;-83
2023/02/24 04:24:43;;;;;;;;;53.33;40.67;;;;;10.24;100.00;100501.75;4960334;28;46933;-83
2023/02/24 04:27:11;;;;;;;;;52.00;45.00;;;;;10.28;100.00;100500.00;4943241;28;45579;-84
2023/02/24 04:29:47;;;;;;;;;57.33;44.33;;;;;10.32;100.00;100488.56;4946344;28;45554;-82
2023/02/24 04:32:17;;;;;;;;;50.67;41.33;;;;;10.38;100.00;100499.25;4980234;28;45938;-84
2023/02/24 04:34:44;;;;;;;;;55.33;44.33;;;;;10.29;100.00;100488.50;5001996;28;47870;-84
2023/02/24 04:37:10;;;;;;;;;57.67;44.67;;;;;10.31;100.00;100492.09;5001855;28;45351;-83
2023/02/24 04:39:37;;;;;;;;;48.00;40.67;;;;;10.27;100.00;100484.94;5002759;28;45398;-83
2023/02/24 04:42:04;;;;;;;;;55.00;42.67;;;;;10.34;100.00;100486.81;5001556;28;45411;-86
2023/02/24 04:44:31;;;;;;;;;52.00;39.33;;;;;10.32;100.00;100485.91;5003646;28;45975;-83
2023/02/24 04:46:58;;;;;;;;;46.67;40.67;;;;;10.30;100.00;100491.22;5008827;28;45402;-83
2023/02/24 04:49:24;;;;;;;;;58.67;43.33;;;;;10.29;100.00;100483.19;5006261;28;45930;-83
2023/02/24 04:51:50;;;;;;;;;54.67;39.00;;;;;10.27;100.00;100493.81;5021768;28;45780;-82
2023/02/24 04:54:19;;;;;;;;;42.33;38.33;;;;;10.28;100.00;100486.72;5039597;28;46713;-83
2023/02/24 04:56:46;;;;;;;;;56.33;43.33;;;;;10.27;100.00;100490.25;5023963;28;45412;-83
2023/02/24 04:59:19;;;;;;;;;56.00;43.00;;;;;10.29;100.00;100483.19;5026313;28;45456;-83
2023/02/24 05:01:45;;;;;;;;;55.33;44.67;;;;;10.32;100.00;100491.22;5021661;28;45955;-83
2023/02/24 05:04:12;;;;;;;;;54.33;38.33;;;;;10.40;100.00;100497.50;5004898;28;45493;-83
2023/02/24 05:06:43;;;;;;;;;53.33;42.33;;;;;10.43;100.00;100491.34;5005847;28;45430;-83
2023/02/24 05:09:16;;;;;;;;;52.67;42.00;;;;;10.46;100.00;100488.72;5023271;28;45763;-84
2023/02/24 05:11:44;;;;;;;;;52.67;42.00;;;;;10.43;100.00;100489.59;5022310;28;45643;-84
2023/02/24 05:14:13;;;;;;;;;51.33;37.67;;;;;10.40;100.00;100486.88;5022879;28;45614;-83
2023/02/24 05:16:41;;;;;;;;;59.33;43.33;;;;;10.34;100.00;100481.50;5022637;28;45559;-83
2023/02/24 05:21:50;;;;;;;;;59.33;45.67;;;;;10.33;100.00;100482.38;5023840;28;45386;-83
2023/02/24 05:24:16;;;;;;;;;54.33;44.00;;;;;10.30;100.00;100485.91;5025005;28;45378;-84
2023/02/24 05:26:41;;;;;;;;;52.33;44.33;;;;;10.21;100.00;100486.66;5025912;28;45400;-83
2023/02/24 05:29:07;;;;;;;;;54.67;42.67;;;;;10.15;100.00;100480.38;5005864;28;45350;-83
2023/02/24 05:31:34;;;;;;;;;58.00;45.67;;;;;10.09;100.00;100478.53;5026311;28;45296;-84
2023/02/24 05:34:06;;;;;;;;;51.00;39.33;;;;;10.14;100.00;100483.88;5023718;28;48059;-84
2023/02/24 05:36:39;;;;;;;;;53.67;43.67;;;;;10.08;100.00;100482.06;5024531;28;45349;-86
2023/02/24 05:39:06;;;;;;;;;60.33;45.33;;;;;9.98;100.00;100472.22;5023217;28;45399;-83
2023/02/24 05:41:34;;;;;;;;;58.33;44.33;;;;;10.03;100.00;100475.81;5007754;28;44957;-83
2023/02/24 05:44:09;;;;;;;;;53.67;43.00;;;;;9.92;100.00;100469.50;5025638;28;46849;-83
2023/02/24 05:46:39;;;;;;;;;57.00;45.00;;;;;9.94;100.00;100475.72;5025086;28;45389;-83
2023/02/24 05:49:22;;;;;;;;;54.67;42.67;;;;;9.94;100.00;100475.72;5023080;28;45515;-82
2023/02/24 05:51:55;;;;;;;;;46.33;39.00;;;;;9.87;100.00;100463.22;5005874;28;45515;-83
2023/02/24 05:54:27;;;;;;;;;52.00;40.00;;;;;9.88;100.00;100463.22;5021680;28;46984;-83
2023/02/24 05:56:55;;;;;;;;;59.67;44.67;;;;;9.89;100.00;100465.00;5021093;28;45378;-83
2023/02/24 05:59:21;;;;;;;;;59.00;43.67;;;;;9.88;100.00;100463.22;5023792;28;45560;-83
2023/02/24 06:01:48;;;;;;;;;53.67;42.00;;;;;9.95;100.00;100461.53;5007509;28;45039;-83
2023/02/24 06:04:37;;;;;;;;;53.00;41.00;;;;;9.93;100.00;100460.63;5024815;28;45446;-83
2023/02/24 06:07:12;;;;;;;;;53.67;41.67;;;;;9.93;100.00;100453.53;5006521;28;45418;-83
2023/02/24 06:09:41;;;;;;;;;52.33;45.00;;;;;9.93;100.00;100453.53;5023533;28;45278;-84
2023/02/24 06:12:13;;;;;;;;;54.00;42.33;;;;;9.99;100.00;100452.72;5005787;28;44885;-82
2023/02/24 06:14:39;;;;;;;;;50.00;40.67;;;;;9.93;100.00;100450.00;5006490;28;47151;-84
2023/02/24 06:17:04;;;;;;;;;47.33;38.33;;;;;9.83;100.00;100438.38;5025168;28;45400;-83
2023/02/24 06:19:33;;;;;;;;;49.00;40.67;;;;;9.84;100.00;100441.91;5006458;28;45235;-83
2023/02/24 06:22:03;;;;;;;;;53.00;41.33;;;;;9.77;100.00;100425.91;5024247;28;45450;-83
2023/02/24 06:24:31;;;;;;;;;51.67;40.00;;;;;9.78;100.00;100442.75;5023158;28;47408;-84
2023/02/24 06:27:08;;;;;;;;;48.67;37.67;;;;;9.70;100.00;100445.31;5022956;28;45457;-83
2023/02/24 06:29:37;;;;;;;;;51.33;43.00;;;;;9.66;100.00;100446.13;5003180;28;45380;-83
2023/02/24 06:32:09;;;;;;;;;51.00;41.00;;;;;9.57;100.00;100435.38;5021411;28;45456;-83
2023/02/24 06:34:36;;;;;;;;;56.33;41.67;;;;;9.60;100.00;100443.41;5021359;28;48293;-83
2023/02/24 06:37:49;;;;;;;;;41.33;37.33;;;;;9.64;100.00;100444.34;5043152;28;45323;-82
2023/02/24 06:40:16;;;;;;;;;53.33;42.33;;;;;9.52;100.00;100439.75;5026722;28;45482;-83
2023/02/24 06:43:00;;;;;;;;;49.00;38.67;;;;;9.59;100.00;100438.94;5026080;28;45381;-83
2023/02/24 06:45:29;;;;;;;;;50.33;38.33;;;;;9.51;100.00;100438.84;5029377;28;47067;-82
2023/02/24 06:47:56;;;;;;;;;50.00;39.00;;;;;9.47;100.00;100436.13;5027396;28;44791;-84
2023/02/24 06:50:23;;;;;;;;;35.00;33.67;;;;;9.56;100.00;100446.88;5023057;28;45495;-84
2023/02/24 06:52:53;;;;;;;;;48.67;40.67;;;;;9.51;100.00;100461.84;5012514;28;45484;-82
2023/02/24 06:55:25;;;;;;;;;41.00;35.67;;;;;9.47;100.00;100462.69;5010403;28;47221;-83
2023/02/24 06:57:56;;;;;;;;;37.00;32.00;;;;;9.47;100.00;100463.56;5028021;28;45339;-84
2023/02/24 07:00:35;;;;;;;;;45.33;39.00;;;;;9.51;100.00;100475.13;5027149;28;44855;-84
2023/02/24 07:03:13;;;;;;;;;48.67;36.33;;;;;9.47;100.00;100465.34;5015006;28;45233;-83
2023/02/24 07:05:49;;;;;;;;;51.33;39.33;;;;;9.53;100.00;100470.72;5006302;28;45340;-82
2023/02/24 07:08:23;;;;;;;;;52.33;40.00;;;;;9.50;100.00;100468.03;5002659;28;45454;-82
2023/02/24 07:10:54;;;;;;;;;54.00;40.67;;;;;9.45;100.00;100477.69;5006964;28;45355;-82
2023/02/24 07:13:23;;;;;;;;;48.67;37.67;;;;;9.34;100.00;100473.13;5016481;28;44987;-82
2023/02/24 07:15:50;;;;;;;;;47.67;39.67;;;;;9.35;100.00;100484.63;5018667;28;45445;-82
2023/02/24 07:18:17;;;;;;;;;42.00;37.00;;;;;9.30;100.00;100476.59;4997668;28;45615;-83
2023/02/24 07:20:45;;;;;;;;;58.67;42.33;;;;;9.29;100.00;100480.13;5015300;28;45434;-85
2023/02/24 07:23:13;;;;;;;;;48.00;40.00;;;;;9.27;100.00;100479.22;5020239;28;45363;-82
2023/02/24 07:25:40;;;;;;;;;51.67;40.00;;;;;9.29;100.00;100487.19;5005943;28;46828;-81
2023/02/24 07:28:06;;;;;;;;;56.33;43.00;;;;;9.19;100.00;100473.78;5020128;28;46004;-82
2023/02/24 07:30:33;;;;;;;;;54.33;42.00;;;;;9.18;100.00;100473.75;5022092;28;45475;-82
2023/02/24 07:32:59;;;;;;;;;39.33;35.00;;;;;9.17;100.00;100474.63;5029135;28;45310;-83
2023/02/24 07:35:25;;;;;;;;;39.00;34.33;;;;;9.25;100.00;100483.63;5016706;28;46285;-85
2023/02/24 07:37:53;;;;;;;;;49.67;38.33;;;;;9.22;100.00;100483.56;5025630;28;45521;-82
2023/02/24 07:43:42;;;;;;;;;52.00;40.67;;;;;9.23;100.00;100471.16;5025324;28;45494;-82
2023/02/24 07:46:14;;;;;;;;;46.67;39.33;;;;;9.21;100.00;100466.75;5034091;28;46967;-81
2023/02/24 07:48:41;;;;;;;;;39.67;37.33;;;;;9.26;100.00;100485.38;5025359;28;45373;-82
2023/02/24 07:51:15;;;;;;;;;43.67;37.00;;;;;9.17;100.00;100477.28;5021626;28;44869;-82
2023/02/24 07:53:42;;;;;;;;;50.00;38.00;;;;;9.22;100.00;100480.91;5027313;28;45312;-82
2023/02/24 07:56:16;;;;;;;;;46.00;38.00;;;;;9.16;100.00;100459.59;5025927;28;47197;-83
2023/02/24 07:58:49;;;;;;;;;44.67;38.67;;;;;9.18;100.00;100449.88;5022038;28;45421;-84
2023/02/24 08:01:21;;;;;;;;;42.00;37.67;;;;;9.28;100.00;100473.03;5024539;28;45336;-82
2023/02/24 08:04:00;;;;;;;;;43.00;36.33;;;;;9.42;100.00;100470.59;5031947;28;44974;-83
2023/02/24 08:06:42;;;;;;;;;41.67;35.67;;;;;9.39;100.00;100463.47;5020066;28;45549;-82
2023/02/24 08:09:17;;;;;;;;;35.67;30.00;;;;;9.39;100.00;100473.19;5031280;28;45509;-83
2023/02/24 08:11:52;;;;;;;;;45.00;38.67;;;;;9.36;100.00;100466.06;5020621;28;45676;-84
2023/02/24 08:14:22;;;;;;;;;44.33;33.00;;;;;9.38;100.00;100469.63;5019062;28;45498;-83
2023/02/24 08:16:52;;;;;;;;;47.00;38.33;;;;;9.48;100.00;100475.09;5008495;28;47005;-83
2023/02/24 08:19:19;;;;;;;;;45.33;38.33;;;;;9.47;100.00;100467.97;4997658;28;45449;-84
2023/02/24 08:21:58;;;;;;;;;43.00;36.33;;;;;9.54;100.00;100468.09;5013246;28;45602;-83
2023/02/24 08:24:28;;;;;;;;;41.33;29.33;;;;;9.44;100.00;100462.66;5026666;28;45370;-84
2023/02/24 08:27:04;;;;;;;;;45.00;32.33;;;;;9.45;100.00;100444.06;5024932;28;46720;-84
2023/02/24 08:32:45;;;;;;;;;49.67;39.67;;;;;9.48;100.00;100448.56;4974889;28;45445;-82
2023/02/24 08:35:14;;;;;;;;;39.67;36.67;;;;;9.15;100.00;100404.72;5023226;28;44793;-83
2023/02/24 08:38:21;;;;;;;;;42.67;35.33;;;;;9.38;100.00;100432.47;5013574;28;45486;-82
2023/02/24 08:41:04;;;;;;;;;26.00;20.33;;;;;9.51;100.00;100437.97;5023152;28;45557;-84
2023/02/24 08:43:37;;;;;;;;;41.67;38.33;;;;;9.36;100.00;100402.38;5014759;28;45503;-82
2023/02/24 08:46:11;;;;;;;;;42.67;34.33;;;;;9.60;100.00;100428.34;5014813;28;45776;-84
2023/02/24 08:49:13;;;;;;;;;37.67;32.33;;;;;9.61;100.00;100429.25;5011540;28;45570;-84
2023/02/24 08:51:51;;;;;;;;;40.67;32.67;;;;;9.49;100.00;100402.53;5010961;28;45483;-81
2023/02/24 08:54:33;;;;;;;;;29.67;29.33;;;;;9.84;100.00;100424.22;5025853;28;44842;-83
2023/02/24 08:57:19;;;;;;;;;46.00;36.00;;;;;9.90;100.00;100424.31;5018003;28;45386;-85
2023/02/24 09:04:18;;;;;;;;;36.00;31.67;;;;;9.55;100.00;100381.38;4920521;28;45984;-84
2023/02/24 09:17:01;;;;;;;;;42.00;32.00;;;;;10.00;100.00;100417.34;4901509;29;45450;-81
2023/02/24 09:23:44;;;;;;;;;39.00;34.33;;;;;10.28;100.00;100425.56;4870446;29;45516;-82
2023/02/24 09:26:15;;;;;;;;;39.00;32.00;;;;;10.18;100.00;100404.25;4870556;29;46440;-83
2023/02/24 09:29:32;;;;;;;;;42.33;34.33;;;;;10.29;100.00;100414.09;4855660;29;45306;-83
2023/02/24 09:32:03;;;;;;;;;42.00;36.00;;;;;10.41;100.00;100433.72;4873978;29;44982;-84
2023/02/24 09:38:35;;;;;;;;;37.00;34.33;;;;;10.35;100.00;100408.88;4878388;29;45347;-83
2023/02/24 09:51:41;;;;;;;;;43.67;36.67;;;;;10.61;100.00;100411.75;4922134;28;45813;-82
2023/02/24 09:54:29;;;;;;;;;36.00;32.67;;;;;10.83;100.00;100436.78;4924835;28;44947;-82
2023/02/24 09:57:24;;;;;;;;;34.33;30.33;;;;;10.82;100.00;100425.22;4910072;28;45102;-83
2023/02/24 10:00:32;;;;;;;;;50.67;36.00;;;;;10.87;100.00;100425.28;4922656;28;45449;-83
2023/02/24 10:04:03;;;;;;;;;39.00;35.67;;;;;10.88;100.00;100427.03;4949311;28;45551;-82
2023/02/24 10:06:48;;;;;;;;;39.33;33.67;;;;;10.82;100.00;100421.66;4921091;28;45472;-82
2023/02/24 10:09:32;;;;;;;;;45.33;34.33;;;;;10.80;100.00;100416.34;4915067;28;45010;-83
2023/02/24 10:12:38;;;;;;;;;38.33;36.00;;;;;10.74;100.00;100392.34;5005500;28;45405;-82
2023/02/24 10:15:31;;;;;;;;;39.00;35.33;;;;;10.70;100.00;100389.66;5016395;28;45256;-83
2023/02/24 10:18:29;;;;;;;;;35.00;30.00;;;;;10.78;100.00;100380.84;5019071;28;45458;-82
2023/02/24 10:21:47;;;;;;;;;43.33;34.33;;;;;11.05;100.00;100387.25;5022987;28;45457;-83
2023/02/24 10:24:22;;;;;;;;;38.67;33.00;;;;;11.08;100.00;100384.59;5007958;28;45593;-82
2023/02/24 10:27:09;;;;;;;;;34.00;31.00;;;;;11.11;100.00;100381.06;5010821;28;45462;-82
2023/02/24 10:30:14;;;;;;;;;34.33;28.33;;;;;10.93;100.00;100356.13;5061335;22;45477;-83
2023/02/24 10:33:04;;;;;;;;;42.67;35.33;;;;;10.92;100.00;100394.25;5037719;28;45575;-83
2023/02/24 10:35:37;;;;;;;;;30.33;29.67;;;;;10.70;100.00;100358.63;5045899;28;45300;-85
2023/02/24 10:38:18;;;;;;;;;34.67;31.67;;;;;10.70;100.00;100363.06;5010378;28;45894;-85
2023/02/24 10:40:57;;;;;;;;;43.33;36.33;;;;;10.71;100.00;100360.41;5028506;28;45193;-83
2023/02/24 10:44:07;;;;;;;;;;;;;;;;;;;;;
2023/02/24 10:46:49;;;;;;;;;39.00;34.33;;;;;10.71;100.00;100349.78;5034121;28;44939;-83
2023/02/24 10:49:34;;;;;;;;;33.00;30.00;;;;;10.81;100.00;100366.69;5042680;28;46330;-83
2023/02/24 10:52:08;;;;;;;;;24.33;24.33;;;;;10.78;100.00;100364.00;5017229;28;45041;-83
2023/02/24 10:55:07;;;;;;;;;39.00;33.00;;;;;10.79;100.00;100358.72;5031695;28;45353;-84
2023/02/24 10:58:26;;;;;;;;;;;;;;;;;;;;;
2023/02/24 11:01:19;;;;;;;;;36.33;27.33;;;;;10.92;100.00;100364.09;4946406;28;74262;-84
2023/02/24 11:04:21;;;;;;;;;32.67;30.67;;;;;10.92;100.00;100349.03;4927897;28;45746;-84
2023/02/24 11:07:08;;;;;;;;;39.00;30.00;;;;;10.96;100.00;100353.47;4914273;28;44757;-83
2023/02/24 11:09:34;;;;;;;;;28.00;22.33;;;;;10.77;100.00;100303.72;4908571;28;45612;-83
2023/02/24 11:18:27;;;;;;;;;33.00;29.67;;;;;11.33;100.00;100329.75;4944318;28;45468;-83
2023/02/24 11:21:13;;;;;;;;;26.33;22.00;;;;;11.36;100.00;100335.06;4943996;28;45547;-83
2023/02/24 11:24:04;;;;;;;;;27.00;23.00;;;;;11.51;100.00;100322.69;4929507;28;45520;-83
2023/02/24 11:30:13;;;;;;;;;27.33;21.33;;;;;11.72;100.00;100321.88;4931069;28;45417;-84
2023/02/24 11:33:02;;;;;;;;;48.00;38.00;;;;;11.82;100.00;100313.03;4925500;28;45557;-83
2023/02/24 11:35:54;;;;;;;;;45.25;36.50;;;;;12.02;100.00;100299.78;4940328;28;45540;-85
2023/02/24 11:39:21;;;;;;;;;39.00;27.33;;;;;12.29;100.00;100290.00;4944773;28;45353;-83
2023/02/24 11:41:55;;;;;;;;;47.67;40.00;;;;;12.50;100.00;100291.75;4909415;28;45412;-84
2023/02/24 11:44:35;;;;;;;;;18.00;18.00;;;;;12.62;100.00;100278.41;4906632;29;45358;-84
2023/02/24 11:47:20;;;;;;;;;33.00;25.67;;;;;12.56;100.00;100255.31;4888347;29;46238;-84
2023/02/24 11:49:49;;;;;;;;;23.67;20.67;;;;;12.57;100.00;100275.75;4952692;28;45531;-84
2023/02/24 11:52:41;;;;;;;;;21.33;19.00;;;;;12.30;100.00;100252.69;4965808;28;45416;-82
2023/02/24 11:55:34;;;;;;;;;22.00;22.00;;;;;12.18;100.00;100266.03;4962434;28;45739;-77
2023/02/24 11:58:29;;;;;;;;;17.33;17.33;;;;;11.92;100.00;100250.91;4978217;28;45543;-75
2023/02/24 12:01:05;;;;;;;;;20.33;19.00;;;;;11.61;100.00;100228.63;4943750;28;45462;-75
2023/02/24 12:04:07;;;;;;;;;23.67;20.00;;;;;11.51;100.00;100222.41;4928582;28;45663;-74
2023/02/24 12:06:55;;;;;;;;;20.67;17.67;;;;;11.54;100.00;100234.84;4921840;28;45899;-75
2023/02/24 12:09:35;;;;;;;;;18.00;16.00;;;;;11.46;100.00;100244.59;4897395;29;45473;-75
2023/02/24 12:12:15;;;;;;;;;15.67;15.00;;;;;11.20;100.00;100200.13;4881987;29;45402;-75
2023/02/24 12:15:11;;;;;;;;;18.00;17.00;;;;;11.30;100.00;100231.22;4898402;29;45548;-76
2023/02/24 12:17:40;;;;;;;;;14.33;14.33;;;;;11.25;100.00;100226.75;4885577;29;45594;-76
2023/02/24 12:20:20;;;;;;;;;13.33;10.67;;;;;11.24;100.00;100223.22;4882078;29;45790;-75
2023/02/24 12:22:55;;;;;;;;;21.67;20.67;;;;;11.28;100.00;100214.34;4898470;29;45556;-75
2023/02/24 12:25:28;;;;;;;;;21.00;18.33;;;;;11.35;100.00;100209.91;4898733;29;44863;-77
2023/02/24 12:28:32;;;;;;;;;16.00;14.00;;;;;11.39;100.00;100215.28;4882043;29;45703;-76
2023/02/24 12:31:36;;;;;;;;;16.67;14.00;;;;;11.36;100.00;100209.94;4902370;29;47053;-77
2023/02/24 12:34:09;;;;;;;;;15.33;13.67;;;;;11.30;100.00;100199.28;4901467;29;45396;-75
2023/02/24 12:40:15;;;;;;;;;15.00;11.67;;;;;11.52;100.00;100202.88;4919703;28;45088;-75
2023/02/24 12:43:04;;;;;;;;;15.33;12.33;;;;;11.71;100.00;100202.88;4993305;28;46596;-83
2023/02/24 12:45:51;;;;;;;;;10.33;9.67;;;;;11.81;100.00;100186.94;5011369;28;45475;-82
2023/02/24 12:48:55;;;;;;;;;18.33;11.67;;;;;11.91;100.00;100184.28;5030889;28;44794;-83
2023/02/24 12:51:39;;;;;;;;;15.00;14.67;;;;;12.09;99.84;100184.25;5030212;28;44895;-83